Terminal Aerodrome Forecast
Issued by NWS

Home | Current Version | Previous Version | Graphics & Text | Print | Product List | Glossary Off
Versions: 1 2 3 4 5 6 7 8 9 10 11 12 13 14 15 16 17 18

000
FTUS42 KMHX 041736
TAFISO
TAF
KISO 041736Z 0418/0518 18008KT P6SM VCTS SCT025 BKN050CB
     FM050000 19005KT P6SM SCT250
     FM050600 23002KT 3SM BR SCT008
     FM051300 27004KT P6SM SCT030
      AMD LTD TO CLD VIS AND WIND=

USA.gov is the U.S. government's official web portal to all federal, state and local government web resources and services.